sensor_id;sensor_type;location;lat;lon;timestamp;P1;durP1;ratioP1;P2;durP2;ratioP2
7334;SDS011;3708;42.632;23.378;2022-11-03T00:00:33;12.43;;;4.57;;
7334;SDS011;3708;42.632;23.378;2022-11-03T00:03:00;10.97;;;4.37;;
7334;SDS011;3708;42.632;23.378;2022-11-03T00:05:27;10.03;;;4.07;;
7334;SDS011;3708;42.632;23.378;2022-11-03T00:08:13;9.73;;;3.83;;
7334;SDS011;3708;42.632;23.378;2022-11-03T00:10:40;12.60;;;4.47;;
7334;SDS011;3708;42.632;23.378;2022-11-03T00:13:06;13.63;;;4.50;;
7334;SDS011;3708;42.632;23.378;2022-11-03T00:15:33;7.90;;;3.80;;
7334;SDS011;3708;42.632;23.378;2022-11-03T00:18:00;6.20;;;4.10;;
7334;SDS011;3708;42.632;23.378;2022-11-03T00:20:27;10.10;;;4.70;;
7334;SDS011;3708;42.632;23.378;2022-11-03T00:22:54;13.63;;;4.93;;
7334;SDS011;3708;42.632;23.378;2022-11-03T00:25:22;9.53;;;4.10;;
7334;SDS011;3708;42.632;23.378;2022-11-03T00:27:53;9.67;;;4.30;;
7334;SDS011;3708;42.632;23.378;2022-11-03T00:30:21;13.63;;;4.30;;
7334;SDS011;3708;42.632;23.378;2022-11-03T00:32:48;8.90;;;3.90;;
7334;SDS011;3708;42.632;23.378;2022-11-03T00:35:14;19.67;;;4.40;;
7334;SDS011;3708;42.632;23.378;2022-11-03T00:37:41;8.40;;;3.83;;
7334;SDS011;3708;42.632;23.378;2022-11-03T00:40:09;6.67;;;3.60;;
7334;SDS011;3708;42.632;23.378;2022-11-03T00:42:37;7.83;;;4.10;;
7334;SDS011;3708;42.632;23.378;2022-11-03T00:45:05;8.50;;;3.90;;
7334;SDS011;3708;42.632;23.378;2022-11-03T00:47:32;9.37;;;4.20;;
7334;SDS011;3708;42.632;23.378;2022-11-03T00:50:19;7.43;;;3.93;;
7334;SDS011;3708;42.632;23.378;2022-11-03T00:52:46;11.63;;;4.73;;
7334;SDS011;3708;42.632;23.378;2022-11-03T00:55:13;5.87;;;3.43;;
7334;SDS011;3708;42.632;23.378;2022-11-03T00:57:41;6.37;;;3.67;;
7334;SDS011;3708;42.632;23.378;2022-11-03T01:00:09;7.03;;;3.13;;
7334;SDS011;3708;42.632;23.378;2022-11-03T01:02:37;11.47;;;4.07;;
7334;SDS011;3708;42.632;23.378;2022-11-03T01:05:04;6.67;;;3.97;;
7334;SDS011;3708;42.632;23.378;2022-11-03T01:07:48;7.17;;;3.43;;
7334;SDS011;3708;42.632;23.378;2022-11-03T01:10:15;8.97;;;3.70;;
7334;SDS011;3708;42.632;23.378;2022-11-03T01:12:45;7.30;;;3.67;;
7334;SDS011;3708;42.632;23.378;2022-11-03T01:15:11;10.07;;;3.47;;
7334;SDS011;3708;42.632;23.378;2022-11-03T01:17:38;6.93;;;3.23;;
7334;SDS011;3708;42.632;23.378;2022-11-03T01:20:06;11.87;;;3.80;;
7334;SDS011;3708;42.632;23.378;2022-11-03T01:22:34;11.13;;;4.07;;
7334;SDS011;3708;42.632;23.378;2022-11-03T01:25:00;6.03;;;3.60;;
7334;SDS011;3708;42.632;23.378;2022-11-03T01:27:28;8.90;;;4.20;;
7334;SDS011;3708;42.632;23.378;2022-11-03T01:29:56;6.80;;;4.07;;
7334;SDS011;3708;42.632;23.378;2022-11-03T01:32:23;6.07;;;3.87;;
7334;SDS011;3708;42.632;23.378;2022-11-03T01:34:50;10.93;;;3.60;;
7334;SDS011;3708;42.632;23.378;2022-11-03T01:37:17;10.87;;;4.40;;
7334;SDS011;3708;42.632;23.378;2022-11-03T01:39:44;11.57;;;3.93;;
7334;SDS011;3708;42.632;23.378;2022-11-03T01:42:11;10.03;;;4.17;;
7334;SDS011;3708;42.632;23.378;2022-11-03T01:44:38;7.20;;;3.70;;
7334;SDS011;3708;42.632;23.378;2022-11-03T01:47:12;9.93;;;4.27;;
7334;SDS011;3708;42.632;23.378;2022-11-03T01:49:46;12.13;;;4.60;;
7334;SDS011;3708;42.632;23.378;2022-11-03T01:52:15;8.03;;;4.10;;
7334;SDS011;3708;42.632;23.378;2022-11-03T01:54:49;9.83;;;4.43;;
7334;SDS011;3708;42.632;23.378;2022-11-03T01:57:21;6.67;;;4.23;;
7334;SDS011;3708;42.632;23.378;2022-11-03T01:59:51;13.40;;;4.83;;
7334;SDS011;3708;42.632;23.378;2022-11-03T02:02:23;10.53;;;4.47;;
7334;SDS011;3708;42.632;23.378;2022-11-03T02:04:51;10.93;;;4.47;;
7334;SDS011;3708;42.632;23.378;2022-11-03T02:07:21;6.63;;;4.13;;
7334;SDS011;3708;42.632;23.378;2022-11-03T02:09:52;6.30;;;4.67;;
7334;SDS011;3708;42.632;23.378;2022-11-03T02:12:19;8.53;;;5.17;;
7334;SDS011;3708;42.632;23.378;2022-11-03T02:14:48;12.43;;;4.93;;
7334;SDS011;3708;42.632;23.378;2022-11-03T02:17:18;16.90;;;5.10;;
7334;SDS011;3708;42.632;23.378;2022-11-03T02:19:49;11.87;;;4.87;;
7334;SDS011;3708;42.632;23.378;2022-11-03T02:25:35;11.90;;;4.13;;
7334;SDS011;3708;42.632;23.378;2022-11-03T02:28:12;11.80;;;4.77;;
7334;SDS011;3708;42.632;23.378;2022-11-03T02:30:42;12.83;;;4.73;;
7334;SDS011;3708;42.632;23.378;2022-11-03T02:33:14;9.13;;;4.97;;
7334;SDS011;3708;42.632;23.378;2022-11-03T02:35:50;10.53;;;5.13;;
7334;SDS011;3708;42.632;23.378;2022-11-03T02:38:23;16.70;;;6.57;;
7334;SDS011;3708;42.632;23.378;2022-11-03T02:40:54;12.43;;;5.97;;
7334;SDS011;3708;42.632;23.378;2022-11-03T02:43:26;11.87;;;5.60;;
7334;SDS011;3708;42.632;23.378;2022-11-03T02:45:54;8.67;;;5.73;;
7334;SDS011;3708;42.632;23.378;2022-11-03T02:48:21;10.67;;;5.67;;
7334;SDS011;3708;42.632;23.378;2022-11-03T02:50:48;14.10;;;5.80;;
7334;SDS011;3708;42.632;23.378;2022-11-03T02:53:15;16.63;;;5.30;;
7334;SDS011;3708;42.632;23.378;2022-11-03T02:55:45;9.87;;;5.27;;
7334;SDS011;3708;42.632;23.378;2022-11-03T02:58:20;9.43;;;5.23;;
7334;SDS011;3708;42.632;23.378;2022-11-03T03:00:53;9.73;;;4.63;;
7334;SDS011;3708;42.632;23.378;2022-11-03T03:03:25;11.23;;;5.80;;
7334;SDS011;3708;42.632;23.378;2022-11-03T03:06:01;10.77;;;5.77;;
7334;SDS011;3708;42.632;23.378;2022-11-03T03:08:32;9.70;;;5.23;;
7334;SDS011;3708;42.632;23.378;2022-11-03T03:11:01;8.53;;;5.47;;
7334;SDS011;3708;42.632;23.378;2022-11-03T03:13:31;12.00;;;6.50;;
7334;SDS011;3708;42.632;23.378;2022-11-03T03:16:04;9.97;;;5.77;;
7334;SDS011;3708;42.632;23.378;2022-11-03T03:18:39;12.27;;;5.20;;
7334;SDS011;3708;42.632;23.378;2022-11-03T03:21:14;9.63;;;4.90;;
7334;SDS011;3708;42.632;23.378;2022-11-03T03:23:45;9.73;;;5.83;;
7334;SDS011;3708;42.632;23.378;2022-11-03T03:26:16;9.87;;;5.20;;
7334;SDS011;3708;42.632;23.378;2022-11-03T03:28:50;13.50;;;5.90;;
7334;SDS011;3708;42.632;23.378;2022-11-03T03:31:21;10.70;;;5.93;;
7334;SDS011;3708;42.632;23.378;2022-11-03T03:33:51;8.87;;;4.87;;
7334;SDS011;3708;42.632;23.378;2022-11-03T03:36:21;10.13;;;5.30;;
7334;SDS011;3708;42.632;23.378;2022-11-03T03:38:52;9.87;;;5.50;;
7334;SDS011;3708;42.632;23.378;2022-11-03T03:41:22;16.00;;;6.13;;
7334;SDS011;3708;42.632;23.378;2022-11-03T03:43:52;13.27;;;6.00;;
7334;SDS011;3708;42.632;23.378;2022-11-03T03:46:25;13.10;;;6.00;;
7334;SDS011;3708;42.632;23.378;2022-11-03T03:48:58;9.93;;;6.27;;
7334;SDS011;3708;42.632;23.378;2022-11-03T03:51:25;11.23;;;5.90;;
7334;SDS011;3708;42.632;23.378;2022-11-03T03:53:54;10.47;;;5.80;;
7334;SDS011;3708;42.632;23.378;2022-11-03T03:56:22;15.13;;;5.90;;
7334;SDS011;3708;42.632;23.378;2022-11-03T03:58:54;12.10;;;6.10;;
7334;SDS011;3708;42.632;23.378;2022-11-03T04:01:21;12.23;;;5.50;;
7334;SDS011;3708;42.632;23.378;2022-11-03T04:03:48;8.93;;;5.33;;
7334;SDS011;3708;42.632;23.378;2022-11-03T04:06:14;10.80;;;6.00;;
7334;SDS011;3708;42.632;23.378;2022-11-03T04:08:41;12.30;;;6.13;;
7334;SDS011;3708;42.632;23.378;2022-11-03T04:11:08;13.03;;;6.20;;
7334;SDS011;3708;42.632;23.378;2022-11-03T04:13:54;10.70;;;6.17;;
7334;SDS011;3708;42.632;23.378;2022-11-03T04:16:38;15.97;;;7.40;;
7334;SDS011;3708;42.632;23.378;2022-11-03T04:19:23;13.57;;;6.23;;
7334;SDS011;3708;42.632;23.378;2022-11-03T04:22:07;10.60;;;7.10;;
7334;SDS011;3708;42.632;23.378;2022-11-03T04:24:43;11.10;;;7.47;;
7334;SDS011;3708;42.632;23.378;2022-11-03T04:30:01;15.73;;;7.90;;
7334;SDS011;3708;42.632;23.378;2022-11-03T04:32:33;12.07;;;6.97;;
7334;SDS011;3708;42.632;23.378;2022-11-03T04:35:00;13.23;;;7.73;;
7334;SDS011;3708;42.632;23.378;2022-11-03T04:37:27;15.83;;;7.70;;
7334;SDS011;3708;42.632;23.378;2022-11-03T04:39:57;11.37;;;6.83;;
7334;SDS011;3708;42.632;23.378;2022-11-03T04:42:25;11.70;;;6.87;;
7334;SDS011;3708;42.632;23.378;2022-11-03T04:44:56;13.57;;;6.67;;
7334;SDS011;3708;42.632;23.378;2022-11-03T04:47:27;13.80;;;6.77;;
7334;SDS011;3708;42.632;23.378;2022-11-03T04:49:56;15.37;;;6.97;;
7334;SDS011;3708;42.632;23.378;2022-11-03T04:52:24;14.47;;;6.83;;
7334;SDS011;3708;42.632;23.378;2022-11-03T04:54:51;17.03;;;7.33;;
7334;SDS011;3708;42.632;23.378;2022-11-03T04:57:19;14.30;;;7.40;;
7334;SDS011;3708;42.632;23.378;2022-11-03T04:59:48;14.57;;;7.13;;
7334;SDS011;3708;42.632;23.378;2022-11-03T05:02:17;15.00;;;7.87;;
7334;SDS011;3708;42.632;23.378;2022-11-03T05:04:48;14.90;;;7.07;;
7334;SDS011;3708;42.632;23.378;2022-11-03T05:07:26;14.73;;;7.20;;
7334;SDS011;3708;42.632;23.378;2022-11-03T05:09:58;13.53;;;6.83;;
7334;SDS011;3708;42.632;23.378;2022-11-03T05:12:26;13.70;;;7.20;;
7334;SDS011;3708;42.632;23.378;2022-11-03T05:14:55;18.27;;;7.80;;
7334;SDS011;3708;42.632;23.378;2022-11-03T05:17:22;14.20;;;7.20;;
7334;SDS011;3708;42.632;23.378;2022-11-03T05:19:54;13.60;;;7.63;;
7334;SDS011;3708;42.632;23.378;2022-11-03T05:22:23;15.43;;;7.70;;
7334;SDS011;3708;42.632;23.378;2022-11-03T05:24:57;13.27;;;7.73;;
7334;SDS011;3708;42.632;23.378;2022-11-03T05:27:28;21.67;;;8.93;;
7334;SDS011;3708;42.632;23.378;2022-11-03T05:29:55;15.03;;;7.03;;
7334;SDS011;3708;42.632;23.378;2022-11-03T05:32:27;17.87;;;7.87;;
7334;SDS011;3708;42.632;23.378;2022-11-03T05:35:00;14.57;;;7.00;;
7334;SDS011;3708;42.632;23.378;2022-11-03T05:37:30;11.30;;;6.70;;
7334;SDS011;3708;42.632;23.378;2022-11-03T05:39:58;19.83;;;6.73;;
7334;SDS011;3708;42.632;23.378;2022-11-03T05:42:32;14.70;;;8.37;;
7334;SDS011;3708;42.632;23.378;2022-11-03T05:45:01;18.93;;;8.33;;
7334;SDS011;3708;42.632;23.378;2022-11-03T05:47:38;15.83;;;7.43;;
7334;SDS011;3708;42.632;23.378;2022-11-03T05:50:13;16.20;;;8.47;;
7334;SDS011;3708;42.632;23.378;2022-11-03T05:52:44;15.53;;;7.87;;
7334;SDS011;3708;42.632;23.378;2022-11-03T05:55:19;22.23;;;8.47;;
7334;SDS011;3708;42.632;23.378;2022-11-03T05:57:50;16.83;;;8.03;;
7334;SDS011;3708;42.632;23.378;2022-11-03T06:00:24;15.83;;;7.57;;
7334;SDS011;3708;42.632;23.378;2022-11-03T06:02:53;16.47;;;9.07;;
7334;SDS011;3708;42.632;23.378;2022-11-03T06:05:23;13.77;;;8.00;;
7334;SDS011;3708;42.632;23.378;2022-11-03T06:07:52;19.23;;;9.67;;
7334;SDS011;3708;42.632;23.378;2022-11-03T06:10:22;18.93;;;10.40;;
7334;SDS011;3708;42.632;23.378;2022-11-03T06:12:52;24.07;;;9.43;;
7334;SDS011;3708;42.632;23.378;2022-11-03T06:15:28;21.30;;;9.47;;
7334;SDS011;3708;42.632;23.378;2022-11-03T06:17:56;19.43;;;9.70;;
7334;SDS011;3708;42.632;23.378;2022-11-03T06:20:26;19.00;;;10.07;;
7334;SDS011;3708;42.632;23.378;2022-11-03T06:22:53;16.93;;;8.90;;
7334;SDS011;3708;42.632;23.378;2022-11-03T06:25:23;20.77;;;10.17;;
7334;SDS011;3708;42.632;23.378;2022-11-03T06:27:54;26.63;;;9.97;;
7334;SDS011;3708;42.632;23.378;2022-11-03T06:30:25;20.00;;;9.77;;
7334;SDS011;3708;42.632;23.378;2022-11-03T06:32:54;20.77;;;9.97;;
7334;SDS011;3708;42.632;23.378;2022-11-03T06:35:26;21.80;;;10.30;;
7334;SDS011;3708;42.632;23.378;2022-11-03T06:37:54;24.63;;;11.40;;
7334;SDS011;3708;42.632;23.378;2022-11-03T06:40:34;21.33;;;10.40;;
7334;SDS011;3708;42.632;23.378;2022-11-03T06:43:09;26.93;;;11.60;;
7334;SDS011;3708;42.632;23.378;2022-11-03T06:45:47;25.87;;;11.37;;
7334;SDS011;3708;42.632;23.378;2022-11-03T06:48:18;20.47;;;12.27;;
7334;SDS011;3708;42.632;23.378;2022-11-03T06:50:50;18.87;;;10.50;;
7334;SDS011;3708;42.632;23.378;2022-11-03T06:53:22;19.33;;;11.97;;
7334;SDS011;3708;42.632;23.378;2022-11-03T06:55:51;17.67;;;10.90;;
7334;SDS011;3708;42.632;23.378;2022-11-03T06:58:22;21.27;;;11.70;;
7334;SDS011;3708;42.632;23.378;2022-11-03T07:00:52;25.60;;;12.13;;
7334;SDS011;3708;42.632;23.378;2022-11-03T07:03:23;23.67;;;11.17;;
7334;SDS011;3708;42.632;23.378;2022-11-03T07:05:57;26.77;;;11.17;;
7334;SDS011;3708;42.632;23.378;2022-11-03T07:08:26;23.63;;;12.13;;
7334;SDS011;3708;42.632;23.378;2022-11-03T07:10:56;18.97;;;11.37;;
7334;SDS011;3708;42.632;23.378;2022-11-03T07:13:37;30.07;;;12.73;;
7334;SDS011;3708;42.632;23.378;2022-11-03T07:16:09;30.73;;;12.10;;
7334;SDS011;3708;42.632;23.378;2022-11-03T07:18:38;20.53;;;11.63;;
7334;SDS011;3708;42.632;23.378;2022-11-03T07:21:15;25.33;;;12.40;;
7334;SDS011;3708;42.632;23.378;2022-11-03T07:23:51;21.63;;;12.73;;
7334;SDS011;3708;42.632;23.378;2022-11-03T07:26:18;29.87;;;13.10;;
7334;SDS011;3708;42.632;23.378;2022-11-03T07:28:45;18.70;;;11.00;;
7334;SDS011;3708;42.632;23.378;2022-11-03T07:31:13;28.90;;;12.60;;
7334;SDS011;3708;42.632;23.378;2022-11-03T07:33:45;17.57;;;11.50;;
7334;SDS011;3708;42.632;23.378;2022-11-03T07:36:14;20.40;;;11.50;;
7334;SDS011;3708;42.632;23.378;2022-11-03T07:38:46;19.37;;;11.93;;
7334;SDS011;3708;42.632;23.378;2022-11-03T07:41:16;22.33;;;11.13;;
7334;SDS011;3708;42.632;23.378;2022-11-03T07:43:46;19.70;;;11.20;;
7334;SDS011;3708;42.632;23.378;2022-11-03T07:46:19;26.23;;;12.97;;
7334;SDS011;3708;42.632;23.378;2022-11-03T07:48:47;20.43;;;10.93;;
7334;SDS011;3708;42.632;23.378;2022-11-03T07:51:15;22.47;;;12.07;;
7334;SDS011;3708;42.632;23.378;2022-11-03T07:53:46;23.37;;;11.33;;
7334;SDS011;3708;42.632;23.378;2022-11-03T07:56:17;17.13;;;12.40;;
7334;SDS011;3708;42.632;23.378;2022-11-03T07:58:46;23.30;;;11.40;;
7334;SDS011;3708;42.632;23.378;2022-11-03T08:01:18;20.17;;;11.23;;
7334;SDS011;3708;42.632;23.378;2022-11-03T08:03:50;21.90;;;12.57;;
7334;SDS011;3708;42.632;23.378;2022-11-03T08:06:18;24.27;;;13.57;;
7334;SDS011;3708;42.632;23.378;2022-11-03T08:08:45;22.30;;;12.83;;
7334;SDS011;3708;42.632;23.378;2022-11-03T08:11:12;27.33;;;14.23;;
7334;SDS011;3708;42.632;23.378;2022-11-03T08:13:40;28.80;;;13.37;;
7334;SDS011;3708;42.632;23.378;2022-11-03T08:16:07;24.17;;;13.33;;
7334;SDS011;3708;42.632;23.378;2022-11-03T08:18:34;24.07;;;13.43;;
7334;SDS011;3708;42.632;23.378;2022-11-03T08:21:01;25.27;;;13.33;;
7334;SDS011;3708;42.632;23.378;2022-11-03T08:23:29;30.33;;;12.53;;
7334;SDS011;3708;42.632;23.378;2022-11-03T08:25:56;24.33;;;13.43;;
7334;SDS011;3708;42.632;23.378;2022-11-03T08:28:23;21.50;;;13.30;;
7334;SDS011;3708;42.632;23.378;2022-11-03T08:30:50;26.07;;;13.70;;
7334;SDS011;3708;42.632;23.378;2022-11-03T08:33:17;25.17;;;13.60;;
7334;SDS011;3708;42.632;23.378;2022-11-03T08:35:44;22.93;;;12.73;;
7334;SDS011;3708;42.632;23.378;2022-11-03T08:38:11;29.30;;;13.90;;
7334;SDS011;3708;42.632;23.378;2022-11-03T08:40:39;24.60;;;13.80;;
7334;SDS011;3708;42.632;23.378;2022-11-03T08:43:06;23.53;;;13.97;;
7334;SDS011;3708;42.632;23.378;2022-11-03T08:45:33;25.37;;;14.07;;
7334;SDS011;3708;42.632;23.378;2022-11-03T08:48:00;32.50;;;15.07;;
7334;SDS011;3708;42.632;23.378;2022-11-03T08:50:28;27.57;;;13.97;;
7334;SDS011;3708;42.632;23.378;2022-11-03T08:52:55;28.80;;;13.93;;
7334;SDS011;3708;42.632;23.378;2022-11-03T08:55:22;26.10;;;15.03;;
7334;SDS011;3708;42.632;23.378;2022-11-03T08:57:51;27.53;;;14.63;;
7334;SDS011;3708;42.632;23.378;2022-11-03T09:00:18;25.83;;;14.17;;
7334;SDS011;3708;42.632;23.378;2022-11-03T09:02:45;24.00;;;14.43;;
7334;SDS011;3708;42.632;23.378;2022-11-03T09:05:12;33.97;;;15.50;;
7334;SDS011;3708;42.632;23.378;2022-11-03T09:07:39;26.57;;;14.27;;
7334;SDS011;3708;42.632;23.378;2022-11-03T09:10:06;86.60;;;19.10;;
7334;SDS011;3708;42.632;23.378;2022-11-03T09:12:35;27.53;;;14.17;;
7334;SDS011;3708;42.632;23.378;2022-11-03T09:15:05;21.80;;;13.23;;
7334;SDS011;3708;42.632;23.378;2022-11-03T09:17:32;26.43;;;14.60;;
7334;SDS011;3708;42.632;23.378;2022-11-03T09:19:59;30.17;;;15.60;;
7334;SDS011;3708;42.632;23.378;2022-11-03T09:22:27;27.87;;;14.53;;
7334;SDS011;3708;42.632;23.378;2022-11-03T09:24:54;31.00;;;14.60;;
7334;SDS011;3708;42.632;23.378;2022-11-03T09:27:22;23.43;;;13.47;;
7334;SDS011;3708;42.632;23.378;2022-11-03T09:29:49;31.13;;;14.90;;
7334;SDS011;3708;42.632;23.378;2022-11-03T09:32:17;29.60;;;13.33;;
7334;SDS011;3708;42.632;23.378;2022-11-03T09:34:45;24.30;;;13.10;;
7334;SDS011;3708;42.632;23.378;2022-11-03T09:37:12;24.27;;;12.13;;
7334;SDS011;3708;42.632;23.378;2022-11-03T09:39:40;28.13;;;12.50;;
7334;SDS011;3708;42.632;23.378;2022-11-03T09:42:07;29.23;;;14.27;;
7334;SDS011;3708;42.632;23.378;2022-11-03T09:44:36;29.40;;;14.60;;
7334;SDS011;3708;42.632;23.378;2022-11-03T09:47:04;31.53;;;15.73;;
7334;SDS011;3708;42.632;23.378;2022-11-03T09:49:33;31.80;;;16.33;;
7334;SDS011;3708;42.632;23.378;2022-11-03T09:52:02;31.37;;;16.50;;
7334;SDS011;3708;42.632;23.378;2022-11-03T09:54:30;25.73;;;15.40;;
7334;SDS011;3708;42.632;23.378;2022-11-03T09:56:57;28.53;;;13.90;;
7334;SDS011;3708;42.632;23.378;2022-11-03T09:59:34;22.67;;;13.90;;
7334;SDS011;3708;42.632;23.378;2022-11-03T10:02:04;26.20;;;13.10;;
7334;SDS011;3708;42.632;23.378;2022-11-03T10:04:47;27.95;;;13.90;;
7334;SDS011;3708;42.632;23.378;2022-11-03T10:07:14;28.30;;;14.65;;
7334;SDS011;3708;42.632;23.378;2022-11-03T10:09:42;24.70;;;14.65;;
7334;SDS011;3708;42.632;23.378;2022-11-03T10:12:11;30.35;;;13.80;;
7334;SDS011;3708;42.632;23.378;2022-11-03T10:14:38;24.38;;;13.10;;
7334;SDS011;3708;42.632;23.378;2022-11-03T10:17:07;22.00;;;11.85;;
7334;SDS011;3708;42.632;23.378;2022-11-03T10:19:41;32.95;;;11.30;;
7334;SDS011;3708;42.632;23.378;2022-11-03T10:22:10;21.90;;;9.57;;
7334;SDS011;3708;42.632;23.378;2022-11-03T10:24:37;19.45;;;8.65;;
7334;SDS011;3708;42.632;23.378;2022-11-03T10:27:05;19.67;;;9.60;;
7334;SDS011;3708;42.632;23.378;2022-11-03T10:29:46;15.95;;;8.57;;
7334;SDS011;3708;42.632;23.378;2022-11-03T10:32:30;16.30;;;7.28;;
7334;SDS011;3708;42.632;23.378;2022-11-03T10:34:59;17.13;;;7.53;;
7334;SDS011;3708;42.632;23.378;2022-11-03T10:37:27;18.38;;;7.43;;
7334;SDS011;3708;42.632;23.378;2022-11-03T10:39:54;13.90;;;7.70;;
7334;SDS011;3708;42.632;23.378;2022-11-03T10:42:23;14.23;;;6.95;;
7334;SDS011;3708;42.632;23.378;2022-11-03T10:44:52;15.63;;;6.88;;
7334;SDS011;3708;42.632;23.378;2022-11-03T10:47:24;14.85;;;5.78;;
7334;SDS011;3708;42.632;23.378;2022-11-03T10:49:56;16.63;;;6.88;;
7334;SDS011;3708;42.632;23.378;2022-11-03T10:52:24;18.25;;;7.65;;
7334;SDS011;3708;42.632;23.378;2022-11-03T10:54:55;20.15;;;7.97;;
7334;SDS011;3708;42.632;23.378;2022-11-03T10:57:25;48.58;;;9.52;;
7334;SDS011;3708;42.632;23.378;2022-11-03T10:59:52;15.85;;;5.53;;
7334;SDS011;3708;42.632;23.378;2022-11-03T11:02:21;11.95;;;5.30;;
7334;SDS011;3708;42.632;23.378;2022-11-03T11:04:51;14.02;;;4.97;;
7334;SDS011;3708;42.632;23.378;2022-11-03T11:07:23;12.75;;;5.50;;
7334;SDS011;3708;42.632;23.378;2022-11-03T11:09:56;9.60;;;4.70;;
7334;SDS011;3708;42.632;23.378;2022-11-03T11:12:31;21.25;;;6.07;;
7334;SDS011;3708;42.632;23.378;2022-11-03T11:14:59;10.02;;;5.20;;
7334;SDS011;3708;42.632;23.378;2022-11-03T11:17:38;12.95;;;5.18;;
7334;SDS011;3708;42.632;23.378;2022-11-03T11:20:17;12.13;;;5.68;;
7334;SDS011;3708;42.632;23.378;2022-11-03T11:26:13;8.18;;;4.43;;
7334;SDS011;3708;42.632;23.378;2022-11-03T11:28:42;17.00;;;4.97;;
7334;SDS011;3708;42.632;23.378;2022-11-03T11:31:27;9.93;;;4.28;;
7334;SDS011;3708;42.632;23.378;2022-11-03T11:40:01;9.90;;;4.18;;
7334;SDS011;3708;42.632;23.378;2022-11-03T11:42:35;11.85;;;4.50;;
7334;SDS011;3708;42.632;23.378;2022-11-03T11:48:41;15.80;;;4.72;;
7334;SDS011;3708;42.632;23.378;2022-11-03T11:51:09;12.65;;;5.55;;
7334;SDS011;3708;42.632;23.378;2022-11-03T11:53:37;16.38;;;6.78;;
7334;SDS011;3708;42.632;23.378;2022-11-03T11:56:07;14.40;;;5.22;;
7334;SDS011;3708;42.632;23.378;2022-11-03T11:58:39;16.92;;;6.38;;
7334;SDS011;3708;42.632;23.378;2022-11-03T12:01:19;13.85;;;6.03;;
7334;SDS011;3708;42.632;23.378;2022-11-03T12:03:47;17.27;;;6.20;;
7334;SDS011;3708;42.632;23.378;2022-11-03T12:06:16;24.40;;;7.00;;
7334;SDS011;3708;42.632;23.378;2022-11-03T12:09:03;18.42;;;6.60;;
7334;SDS011;3708;42.632;23.378;2022-11-03T12:11:40;15.77;;;7.38;;
7334;SDS011;3708;42.632;23.378;2022-11-03T12:14:21;18.95;;;5.85;;
7334;SDS011;3708;42.632;23.378;2022-11-03T12:16:49;13.27;;;5.28;;
7334;SDS011;3708;42.632;23.378;2022-11-03T12:19:33;18.20;;;6.25;;
7334;SDS011;3708;42.632;23.378;2022-11-03T12:22:05;11.60;;;5.60;;
7334;SDS011;3708;42.632;23.378;2022-11-03T12:24:35;12.77;;;5.30;;
7334;SDS011;3708;42.632;23.378;2022-11-03T12:27:15;19.08;;;6.32;;
7334;SDS011;3708;42.632;23.378;2022-11-03T12:29:46;19.65;;;5.82;;
7334;SDS011;3708;42.632;23.378;2022-11-03T12:32:12;17.00;;;4.80;;
7334;SDS011;3708;42.632;23.378;2022-11-03T12:34:39;11.98;;;5.80;;
7334;SDS011;3708;42.632;23.378;2022-11-03T12:37:06;17.80;;;6.13;;
7334;SDS011;3708;42.632;23.378;2022-11-03T12:39:33;10.20;;;4.85;;
7334;SDS011;3708;42.632;23.378;2022-11-03T12:42:00;12.30;;;4.95;;
7334;SDS011;3708;42.632;23.378;2022-11-03T12:44:27;13.55;;;5.82;;
7334;SDS011;3708;42.632;23.378;2022-11-03T12:46:56;13.45;;;5.32;;
7334;SDS011;3708;42.632;23.378;2022-11-03T12:49:23;13.18;;;4.78;;
7334;SDS011;3708;42.632;23.378;2022-11-03T12:51:50;13.52;;;5.43;;
7334;SDS011;3708;42.632;23.378;2022-11-03T12:54:16;13.10;;;5.10;;
7334;SDS011;3708;42.632;23.378;2022-11-03T12:56:43;10.23;;;4.88;;
7334;SDS011;3708;42.632;23.378;2022-11-03T12:59:10;13.65;;;5.40;;
7334;SDS011;3708;42.632;23.378;2022-11-03T13:01:37;16.60;;;4.90;;
7334;SDS011;3708;42.632;23.378;2022-11-03T13:04:06;15.95;;;4.38;;
7334;SDS011;3708;42.632;23.378;2022-11-03T13:06:33;17.38;;;5.00;;
7334;SDS011;3708;42.632;23.378;2022-11-03T13:09:03;18.08;;;4.95;;
7334;SDS011;3708;42.632;23.378;2022-11-03T13:11:30;19.33;;;4.55;;
7334;SDS011;3708;42.632;23.378;2022-11-03T13:14:15;12.48;;;4.60;;
7334;SDS011;3708;42.632;23.378;2022-11-03T13:16:45;15.93;;;5.13;;
7334;SDS011;3708;42.632;23.378;2022-11-03T13:19:13;13.68;;;4.95;;
7334;SDS011;3708;42.632;23.378;2022-11-03T13:21:40;11.00;;;4.00;;
7334;SDS011;3708;42.632;23.378;2022-11-03T13:24:07;17.42;;;5.03;;
7334;SDS011;3708;42.632;23.378;2022-11-03T13:26:34;21.77;;;5.53;;
7334;SDS011;3708;42.632;23.378;2022-11-03T13:29:01;16.63;;;5.78;;
7334;SDS011;3708;42.632;23.378;2022-11-03T13:31:28;11.70;;;4.88;;
7334;SDS011;3708;42.632;23.378;2022-11-03T13:33:55;16.60;;;5.90;;
7334;SDS011;3708;42.632;23.378;2022-11-03T13:36:42;12.57;;;6.13;;
7334;SDS011;3708;42.632;23.378;2022-11-03T13:39:09;16.50;;;5.05;;
7334;SDS011;3708;42.632;23.378;2022-11-03T13:41:36;17.15;;;6.15;;
7334;SDS011;3708;42.632;23.378;2022-11-03T13:44:04;13.82;;;5.13;;
7334;SDS011;3708;42.632;23.378;2022-11-03T13:46:32;12.82;;;4.60;;
7334;SDS011;3708;42.632;23.378;2022-11-03T13:49:00;13.95;;;4.65;;
7334;SDS011;3708;42.632;23.378;2022-11-03T13:51:26;29.52;;;5.53;;
7334;SDS011;3708;42.632;23.378;2022-11-03T13:53:55;14.50;;;5.93;;
7334;SDS011;3708;42.632;23.378;2022-11-03T13:56:22;8.95;;;4.40;;
7334;SDS011;3708;42.632;23.378;2022-11-03T13:58:49;12.27;;;4.57;;
7334;SDS011;3708;42.632;23.378;2022-11-03T14:01:16;13.68;;;5.55;;
7334;SDS011;3708;42.632;23.378;2022-11-03T14:03:43;13.00;;;4.85;;
7334;SDS011;3708;42.632;23.378;2022-11-03T14:06:10;14.48;;;5.13;;
7334;SDS011;3708;42.632;23.378;2022-11-03T14:08:37;14.15;;;5.78;;
7334;SDS011;3708;42.632;23.378;2022-11-03T14:11:05;15.00;;;5.38;;
7334;SDS011;3708;42.632;23.378;2022-11-03T14:13:53;13.48;;;5.00;;
7334;SDS011;3708;42.632;23.378;2022-11-03T14:16:20;12.52;;;5.00;;
7334;SDS011;3708;42.632;23.378;2022-11-03T14:18:47;14.98;;;5.78;;
7334;SDS011;3708;42.632;23.378;2022-11-03T14:21:14;16.83;;;5.95;;
7334;SDS011;3708;42.632;23.378;2022-11-03T14:23:41;20.60;;;5.60;;
7334;SDS011;3708;42.632;23.378;2022-11-03T14:26:09;15.43;;;5.68;;
7334;SDS011;3708;42.632;23.378;2022-11-03T14:28:38;15.48;;;5.50;;
7334;SDS011;3708;42.632;23.378;2022-11-03T14:31:08;13.85;;;5.22;;
7334;SDS011;3708;42.632;23.378;2022-11-03T14:33:35;16.08;;;4.72;;
7334;SDS011;3708;42.632;23.378;2022-11-03T14:36:02;20.77;;;5.88;;
7334;SDS011;3708;42.632;23.378;2022-11-03T14:38:30;13.98;;;5.18;;
7334;SDS011;3708;42.632;23.378;2022-11-03T14:41:07;47.75;;;7.72;;
7334;SDS011;3708;42.632;23.378;2022-11-03T14:43:53;18.25;;;5.68;;
7334;SDS011;3708;42.632;23.378;2022-11-03T14:46:20;15.32;;;5.10;;
7334;SDS011;3708;42.632;23.378;2022-11-03T14:48:47;17.65;;;6.43;;
7334;SDS011;3708;42.632;23.378;2022-11-03T14:51:14;17.90;;;5.20;;
7334;SDS011;3708;42.632;23.378;2022-11-03T14:53:41;14.65;;;5.53;;
7334;SDS011;3708;42.632;23.378;2022-11-03T14:56:09;20.42;;;6.35;;
7334;SDS011;3708;42.632;23.378;2022-11-03T14:58:37;17.95;;;7.00;;
7334;SDS011;3708;42.632;23.378;2022-11-03T15:01:04;21.30;;;7.13;;
7334;SDS011;3708;42.632;23.378;2022-11-03T15:03:31;20.65;;;7.32;;
7334;SDS011;3708;42.632;23.378;2022-11-03T15:05:58;23.35;;;7.57;;
7334;SDS011;3708;42.632;23.378;2022-11-03T15:08:25;19.08;;;6.38;;
7334;SDS011;3708;42.632;23.378;2022-11-03T15:10:53;23.10;;;6.55;;
7334;SDS011;3708;42.632;23.378;2022-11-03T15:13:22;38.13;;;8.15;;
7334;SDS011;3708;42.632;23.378;2022-11-03T15:15:49;20.10;;;6.90;;
7334;SDS011;3708;42.632;23.378;2022-11-03T15:18:16;26.20;;;7.20;;
7334;SDS011;3708;42.632;23.378;2022-11-03T15:20:43;21.77;;;6.78;;